Time;durP1;ratioP1;P1;durP2;ratioP2;P2;SDS_P1;SDS_P2;PMS_P1;PMS_P2;Temp;Humidity;BMP_temperature;BMP_pressure;BME280_temperature;BME280_humidity;BME280_pressure;Samples;Min_cycle;Max_cycle;Signal;HPM_P1;HPM_P2
2023/09/28 00:02:53;;;;;;;;;;;;;;;21.92;52.59;100377.75;4937953;28;11494;-76
2023/09/28 00:05:22;;;;;;;;;;;;;;;21.86;52.27;100380.38;4942147;28;6796;-74
2023/09/28 00:07:49;;;;;;;;;;;;;;;21.80;52.50;100377.75;4919866;28;6996;-73
2023/09/28 00:10:16;;;;;;;;;;;;;;;21.65;52.93;100382.06;4926442;29;7015;-75
2023/09/28 00:12:45;;;;;;;;;;;;;;;21.62;53.15;100371.59;4940747;29;6984;-75
2023/09/28 00:15:11;;;;;;;;;;;;;;;21.67;52.77;100385.56;4942081;28;7002;-74
2023/09/28 00:17:38;;;;;;;;;;;;;;;21.64;52.83;100377.72;4944229;28;7142;-74
2023/09/28 00:20:18;;;;;;;;;;;;;;;21.66;52.96;100373.38;4944178;28;6808;-73
2023/09/28 00:22:44;;;;;;;;;;;;;;;21.67;53.38;100375.16;4929374;29;7011;-73
2023/09/28 00:25:11;;;;;;;;;;;;;;;21.70;53.35;100372.53;4940622;28;6954;-73
2023/09/28 00:27:45;;;;;;;;;;;;;;;21.65;53.08;100376.84;4960779;28;7004;-73
2023/09/28 00:30:18;;;;;;;;;;;;;;;21.68;53.59;100382.09;4944085;28;6984;-74
2023/09/28 00:32:48;;;;;;;;;;;;;;;21.72;53.36;100386.44;4943389;28;7108;-73
2023/09/28 00:35:14;;;;;;;;;;;;;;;21.76;53.41;100382.09;4941888;28;7197;-73
2023/09/28 00:37:41;;;;;;;;;;;;;;;21.69;53.79;100394.25;4958535;28;6894;-73
2023/09/28 00:40:21;;;;;;;;;;;;;;;21.73;53.61;100383.00;4939928;28;7407;-75
2023/09/28 00:42:49;;;;;;;;;;;;;;;21.85;53.08;100376.03;4933395;28;7004;-73
2023/09/28 00:45:15;;;;;;;;;;;;;;;21.90;52.90;100388.22;4962422;28;6954;-74
2023/09/28 00:47:41;;;;;;;;;;;;;;;21.93;53.26;100379.53;4941421;28;6874;-73
2023/09/28 00:50:10;;;;;;;;;;;;;;;21.94;53.16;100375.16;4962722;28;6776;-73
2023/09/28 00:52:41;;;;;;;;;;;;;;;21.94;53.43;100380.38;4945799;28;7275;-73
2023/09/28 00:55:09;;;;;;;;;;;;;;;21.93;53.35;100382.13;4942186;28;6972;-74
2023/09/28 00:57:39;;;;;;;;;;;;;;;21.93;53.14;100376.91;4943461;28;7238;-73
2023/09/28 01:00:28;;;;;;;;;;;;;;;21.91;53.70;100382.13;4942736;28;6800;-75
2023/09/28 01:02:53;;;;;;;;;;;;;;;21.93;53.54;100382.13;4945837;28;11413;-75
2023/09/28 01:05:27;;;;;;;;;;;;;;;21.96;53.39;100391.69;4944172;28;7210;-75
2023/09/28 01:07:55;;;;;;;;;;;;;;;22.01;53.01;100383.00;4942923;28;6816;-72
2023/09/28 01:10:23;;;;;;;;;;;;;;;22.11;52.80;100380.38;4945426;28;6831;-72
2023/09/28 01:12:49;;;;;;;;;;;;;;;22.22;53.09;100383.88;4936858;28;7005;-74
2023/09/28 01:15:16;;;;;;;;;;;;;;;22.30;52.76;100381.25;4959573;28;6788;-73
2023/09/28 01:17:42;;;;;;;;;;;;;;;22.39;52.00;100388.19;4943119;28;7290;-73
2023/09/28 01:20:16;;;;;;;;;;;;;;;22.47;52.17;100381.22;4945391;28;7415;-73
2023/09/28 01:22:42;;;;;;;;;;;;;;;22.56;51.68;100380.41;4947177;28;7123;-73
2023/09/28 01:25:08;;;;;;;;;;;;;;;22.61;51.16;100378.63;4944324;28;6887;-73
2023/09/28 01:27:34;;;;;;;;;;;;;;;22.67;51.46;100388.19;4946072;28;6967;-75
2023/09/28 01:29:59;;;;;;;;;;;;;;;22.72;51.56;100389.06;4938919;28;7315;-75
2023/09/28 01:32:25;;;;;;;;;;;;;;;22.74;50.72;100392.53;4943174;28;6866;-75
2023/09/28 01:34:50;;;;;;;;;;;;;;;22.76;50.56;100398.63;4949391;28;6780;-74
2023/09/28 01:37:20;;;;;;;;;;;;;;;22.78;50.40;100389.03;4937397;28;6780;-75
2023/09/28 01:39:45;;;;;;;;;;;;;;;22.81;50.41;100394.25;4943472;28;6995;-73
2023/09/28 01:42:11;;;;;;;;;;;;;;;22.80;50.08;100391.66;4940937;28;6945;-73
2023/09/28 01:44:36;;;;;;;;;;;;;;;22.78;50.39;100396.84;4947929;28;6938;-76
2023/09/28 01:47:02;;;;;;;;;;;;;;;22.77;50.17;100402.09;4926457;28;6931;-74
2023/09/28 01:49:27;;;;;;;;;;;;;;;22.74;50.41;100401.25;4947658;28;7114;-72
2023/09/28 01:51:52;;;;;;;;;;;;;;;22.69;49.81;100400.38;4944736;28;7753;-75
2023/09/28 01:54:18;;;;;;;;;;;;;;;22.63;49.67;100394.31;4955993;28;7037;-74
2023/09/28 01:56:43;;;;;;;;;;;;;;;22.60;50.13;100396.06;4944734;28;6875;-74
2023/09/28 01:59:09;;;;;;;;;;;;;;;22.59;50.56;100396.91;4944540;28;6784;-74
2023/09/28 02:01:34;;;;;;;;;;;;;;;22.59;50.12;100402.13;4920820;28;6941;-74
2023/09/28 02:04:00;;;;;;;;;;;;;;;22.59;50.39;100398.66;4929836;28;6955;-73
2023/09/28 02:06:25;;;;;;;;;;;;;;;22.58;50.01;100397.78;4942837;28;6848;-75
2023/09/28 02:08:51;;;;;;;;;;;;;;;22.56;50.24;100404.75;4945692;28;6796;-74
2023/09/28 02:11:16;;;;;;;;;;;;;;;22.53;50.22;100399.53;4961671;28;6788;-75
2023/09/28 02:13:42;;;;;;;;;;;;;;;22.48;50.53;100415.19;4960332;28;7170;-74
2023/09/28 02:16:11;;;;;;;;;;;;;;;22.46;50.51;100413.44;4935387;28;6812;-73
2023/09/28 02:18:37;;;;;;;;;;;;;;;22.44;50.09;100413.44;4940990;28;7261;-72
2023/09/28 02:21:03;;;;;;;;;;;;;;;22.45;50.38;100414.31;4944868;28;7252;-73
2023/09/28 02:23:28;;;;;;;;;;;;;;;22.44;50.24;100412.56;4941680;28;6977;-76
2023/09/28 02:25:54;;;;;;;;;;;;;;;22.44;50.12;100420.41;4914950;28;6980;-76
2023/09/28 02:28:19;;;;;;;;;;;;;;;22.46;50.74;100418.66;4945198;28;6867;-76
2023/09/28 02:30:45;;;;;;;;;;;;;;;22.48;50.57;100416.91;4943853;28;7093;-74
2023/09/28 02:33:11;;;;;;;;;;;;;;;22.50;50.54;100417.81;4922251;28;7070;-74
2023/09/28 02:35:37;;;;;;;;;;;;;;;22.53;50.18;100424.78;4960448;28;7124;-75
2023/09/28 02:38:02;;;;;;;;;;;;;;;22.53;50.58;100425.66;4935834;28;6796;-74
2023/09/28 02:40:29;;;;;;;;;;;;;;;22.52;50.85;100429.16;4942469;28;7197;-74
2023/09/28 02:42:55;;;;;;;;;;;;;;;22.50;50.42;100433.47;4919576;28;7022;-74
2023/09/28 02:45:21;;;;;;;;;;;;;;;22.45;50.40;100430.88;4938362;28;7148;-74
2023/09/28 02:47:48;;;;;;;;;;;;;;;22.42;50.62;100440.44;4935533;28;6796;-74
2023/09/28 02:50:16;;;;;;;;;;;;;;;22.38;50.96;100439.56;4929847;28;6987;-74
2023/09/28 02:52:45;;;;;;;;;;;;;;;22.34;50.70;100436.06;4926468;28;6854;-73
2023/09/28 02:55:12;;;;;;;;;;;;;;;22.32;51.44;100442.16;4938318;28;6986;-74
2023/09/28 02:57:38;;;;;;;;;;;;;;;22.30;51.02;100443.91;4954185;28;6820;-74
2023/09/28 03:00:30;;;;;;;;;;;;;;;22.26;51.13;100453.47;4942423;28;7238;-74
2023/09/28 03:03:00;;;;;;;;;;;;;;;22.21;51.23;100447.38;4923483;28;13530;-74
2023/09/28 03:05:27;;;;;;;;;;;;;;;22.19;51.24;100457.81;4937489;28;7288;-74
2023/09/28 03:07:53;;;;;;;;;;;;;;;22.17;51.40;100461.31;4930657;28;7752;-74
2023/09/28 03:10:19;;;;;;;;;;;;;;;22.15;51.50;100460.44;4939271;28;6776;-74
2023/09/28 03:12:46;;;;;;;;;;;;;;;22.11;51.93;100462.16;4936839;28;7115;-73
2023/09/28 03:15:13;;;;;;;;;;;;;;;22.13;52.21;100467.41;4933358;28;6816;-74
2023/09/28 03:17:40;;;;;;;;;;;;;;;22.15;52.08;100463.91;4934040;28;7272;-74
2023/09/28 03:20:11;;;;;;;;;;;;;;;22.17;52.05;100469.13;4938866;28;7071;-74
2023/09/28 03:22:37;;;;;;;;;;;;;;;22.15;51.90;100466.50;4934177;28;6855;-74
2023/09/28 03:25:06;;;;;;;;;;;;;;;22.16;51.73;100467.41;4938941;28;8352;-74
2023/09/28 03:27:32;;;;;;;;;;;;;;;22.13;51.87;100463.03;4940259;28;6828;-74
2023/09/28 03:29:57;;;;;;;;;;;;;;;22.12;51.95;100466.50;4943681;28;6796;-74
2023/09/28 03:32:23;;;;;;;;;;;;;;;22.11;51.88;100479.53;4921196;28;7366;-74
2023/09/28 03:34:48;;;;;;;;;;;;;;;22.10;52.11;100472.59;4918645;28;7331;-73
2023/09/28 03:37:18;;;;;;;;;;;;;;;22.09;52.19;100474.34;4936664;28;6812;-73
2023/09/28 03:39:44;;;;;;;;;;;;;;;22.08;52.63;100474.34;4944157;28;6808;-73
2023/09/28 03:42:10;;;;;;;;;;;;;;;22.05;52.59;100483.03;4940533;28;7331;-74
2023/09/28 03:44:35;;;;;;;;;;;;;;;22.02;52.33;100490.84;4921822;28;7116;-73
2023/09/28 03:47:01;;;;;;;;;;;;;;;22.02;52.67;100496.06;4934212;28;7623;-73
2023/09/28 03:49:26;;;;;;;;;;;;;;;21.99;53.02;100499.53;4942516;28;6855;-72
2023/09/28 03:51:52;;;;;;;;;;;;;;;21.96;53.11;100496.94;4918361;28;8051;-73
2023/09/28 03:54:17;;;;;;;;;;;;;;;21.95;53.18;100491.69;4938644;28;6800;-73
2023/09/28 03:56:43;;;;;;;;;;;;;;;21.96;53.10;100504.75;4937321;28;6882;-73
2023/09/28 03:59:08;;;;;;;;;;;;;;;21.94;53.23;100503.00;4928380;28;7968;-73
2023/09/28 04:01:34;;;;;;;;;;;;;;;21.91;53.29;100509.09;4919250;28;6915;-73
2023/09/28 04:03:59;;;;;;;;;;;;;;;21.89;53.78;100516.03;4924997;28;7328;-73
2023/09/28 04:06:25;;;;;;;;;;;;;;;21.88;53.89;100511.69;4933858;28;6984;-73
2023/09/28 04:08:50;;;;;;;;;;;;;;;21.89;53.69;100522.16;4940918;28;6796;-72
2023/09/28 04:11:16;;;;;;;;;;;;;;;21.88;53.45;100517.78;4955616;28;7336;-73
2023/09/28 04:13:41;;;;;;;;;;;;;;;21.88;53.77;100509.97;4923140;29;6975;-73
2023/09/28 04:16:07;;;;;;;;;;;;;;;21.88;53.91;100514.31;4957710;28;6879;-75
2023/09/28 04:18:32;;;;;;;;;;;;;;;21.88;53.69;100514.31;4946833;28;7035;-75
2023/09/28 04:20:58;;;;;;;;;;;;;;;21.85;53.74;100509.94;4943415;28;6916;-75
2023/09/28 04:23:23;;;;;;;;;;;;;;;21.80;53.60;100516.91;4950203;28;6784;-75
2023/09/28 04:25:49;;;;;;;;;;;;;;;21.75;53.81;100511.66;4961270;28;6866;-75
2023/09/28 04:28:14;;;;;;;;;;;;;;;21.70;54.02;100510.75;4931160;28;7288;-75
2023/09/28 04:30:40;;;;;;;;;;;;;;;21.66;54.01;100519.41;4947162;28;6833;-75
2023/09/28 04:33:05;;;;;;;;;;;;;;;21.62;54.02;100520.25;4948552;28;6965;-74
2023/09/28 04:35:30;;;;;;;;;;;;;;;21.59;54.27;100525.47;4917588;28;7102;-75
2023/09/28 04:37:57;;;;;;;;;;;;;;;21.54;54.46;100525.44;4923839;28;6837;-74
2023/09/28 04:40:25;;;;;;;;;;;;;;;21.50;54.53;100516.72;4950156;28;6783;-74
2023/09/28 04:42:52;;;;;;;;;;;;;;;21.47;54.33;100518.44;4945518;28;7239;-75
2023/09/28 04:45:19;;;;;;;;;;;;;;;21.44;54.92;100524.53;4950490;28;6812;-75
2023/09/28 04:47:44;;;;;;;;;;;;;;;21.38;54.68;100519.28;4944971;28;6847;-74
2023/09/28 04:50:10;;;;;;;;;;;;;;;21.32;54.72;100521.84;4948530;28;6871;-74
2023/09/28 04:52:35;;;;;;;;;;;;;;;21.25;54.83;100538.34;4929929;28;6969;-74
2023/09/28 04:55:01;;;;;;;;;;;;;;;21.17;55.03;100544.38;4949884;28;7081;-75
2023/09/28 04:57:26;;;;;;;;;;;;;;;21.08;55.28;100545.16;4928260;28;6962;-75
2023/09/28 04:59:53;;;;;;;;;;;;;;;21.00;55.25;100553.78;4940209;28;7561;-74
2023/09/28 05:02:19;;;;;;;;;;;;;;;20.91;55.54;100546.78;4944830;28;6998;-75
2023/09/28 05:04:45;;;;;;;;;;;;;;;20.80;55.44;100550.13;4950561;28;7345;-74
2023/09/28 05:07:11;;;;;;;;;;;;;;;20.72;55.66;100545.72;4944589;28;6784;-74
2023/09/28 05:09:38;;;;;;;;;;;;;;;20.63;56.06;100544.78;4941901;28;6788;-75
2023/09/28 05:12:04;;;;;;;;;;;;;;;20.54;55.94;100550.78;4946862;28;7006;-74
2023/09/28 05:14:29;;;;;;;;;;;;;;;20.46;56.23;100548.97;4941798;28;7388;-74
2023/09/28 05:16:55;;;;;;;;;;;;;;;20.37;56.54;100548.00;4947693;28;6800;-74
2023/09/28 05:19:21;;;;;;;;;;;;;;;20.29;56.74;100538.38;4944899;28;6792;-74
2023/09/28 05:21:47;;;;;;;;;;;;;;;20.22;56.74;100553.06;4945514;28;7138;-74
2023/09/28 05:24:13;;;;;;;;;;;;;;;20.17;57.16;100559.94;4943628;28;7003;-75
2023/09/28 05:26:38;;;;;;;;;;;;;;;20.12;57.06;100563.38;4944940;28;7019;-74
2023/09/28 05:29:04;;;;;;;;;;;;;;;20.07;57.28;100572.84;4944602;28;7336;-74
2023/09/28 05:31:30;;;;;;;;;;;;;;;20.06;57.51;100580.66;4937124;28;7269;-75
2023/09/28 05:33:55;;;;;;;;;;;;;;;20.05;57.67;100582.38;4948638;28;7694;-74
2023/09/28 05:36:21;;;;;;;;;;;;;;;20.06;57.77;100584.13;4949521;28;7364;-74
2023/09/28 05:38:46;;;;;;;;;;;;;;;20.08;58.00;100578.94;4946980;28;6855;-74
2023/09/28 05:41:12;;;;;;;;;;;;;;;20.10;57.74;100580.72;4944383;28;9070;-74
2023/09/28 05:43:38;;;;;;;;;;;;;;;20.11;58.19;100582.44;4945200;28;6792;-75
2023/09/28 05:46:04;;;;;;;;;;;;;;;20.11;58.26;100584.16;4938967;28;7394;-75
2023/09/28 05:48:29;;;;;;;;;;;;;;;20.11;58.38;100586.78;5008095;23;7108;-74
2023/09/28 05:50:55;;;;;;;;;;;;;;;20.09;58.02;100589.38;4920154;28;8089;-74
2023/09/28 05:53:20;;;;;;;;;;;;;;;20.07;58.59;100596.25;4980955;23;6844;-74
2023/09/28 05:55:47;;;;;;;;;;;;;;;20.08;58.45;100603.22;4918498;28;6815;-74
2023/09/28 05:58:12;;;;;;;;;;;;;;;20.05;58.27;100603.19;4933976;28;8031;-75
2023/09/28 06:00:38;;;;;;;;;;;;;;;20.04;58.42;100606.63;4931815;28;7526;-75
2023/09/28 06:03:04;;;;;;;;;;;;;;;20.03;58.52;100610.09;4931491;28;7273;-74
2023/09/28 06:05:29;;;;;;;;;;;;;;;20.01;58.52;100606.63;4948726;28;7606;-74
2023/09/28 06:07:55;;;;;;;;;;;;;;;20.00;58.74;100607.47;4917342;28;6966;-74
2023/09/28 06:10:21;;;;;;;;;;;;;;;20.02;59.06;100613.56;4930671;28;7245;-74
2023/09/28 06:12:46;;;;;;;;;;;;;;;20.03;59.02;100625.72;4933127;28;7890;-74
2023/09/28 06:15:12;;;;;;;;;;;;;;;20.04;59.27;100617.03;4937510;28;7134;-74
2023/09/28 06:17:37;;;;;;;;;;;;;;;20.06;59.29;100619.69;4934889;28;6776;-74
2023/09/28 06:20:05;;;;;;;;;;;;;;;20.08;59.22;100616.22;4951835;28;6788;-74
2023/09/28 06:22:31;;;;;;;;;;;;;;;20.11;59.23;100613.66;4919830;28;7156;-75
2023/09/28 06:24:56;;;;;;;;;;;;;;;20.16;59.63;100623.25;4919030;28;6998;-74
2023/09/28 06:27:25;;;;;;;;;;;;;;;20.19;59.34;100618.97;4936637;28;7274;-75
2023/09/28 06:29:52;;;;;;;;;;;;;;;20.26;59.44;100622.50;4933712;28;7036;-74
2023/09/28 06:32:19;;;;;;;;;;;;;;;20.33;59.92;100616.50;4913117;28;7013;-75
2023/09/28 06:34:45;;;;;;;;;;;;;;;20.40;59.98;100625.25;4935596;28;7014;-74
2023/09/28 06:37:10;;;;;;;;;;;;;;;20.47;59.91;100627.09;4939966;28;6923;-74
2023/09/28 06:39:37;;;;;;;;;;;;;;;20.56;59.63;100628.91;4930936;28;7608;-74
2023/09/28 06:42:04;;;;;;;;;;;;;;;20.63;59.58;100635.91;4937296;28;7360;-75
2023/09/28 06:44:30;;;;;;;;;;;;;;;20.72;59.96;100634.28;4935088;28;6804;-73
2023/09/28 06:46:57;;;;;;;;;;;;;;;20.78;59.93;100642.16;4932247;28;6860;-74
2023/09/28 06:49:23;;;;;;;;;;;;;;;20.85;60.01;100656.13;4932415;28;6845;-74
2023/09/28 06:51:49;;;;;;;;;;;;;;;20.91;59.47;100649.25;4933709;28;6804;-75
2023/09/28 06:54:15;;;;;;;;;;;;;;;20.98;59.60;100649.31;4935309;28;6964;-74
2023/09/28 06:56:41;;;;;;;;;;;;;;;21.05;59.60;100659.78;4929626;28;6980;-75
2023/09/28 06:59:07;;;;;;;;;;;;;;;21.12;59.76;100671.13;4917040;28;7131;-74
2023/09/28 07:01:33;;;;;;;;;;;;;;;21.21;59.87;100667.75;4920671;28;7563;-74
2023/09/28 07:03:59;;;;;;;;;;;;;;;21.28;59.71;100664.31;4930836;28;7056;-85
2023/09/28 07:06:24;;;;;;;;;;;;;;;21.36;59.35;100667.00;4926303;28;6784;-87
2023/09/28 07:08:52;;;;;;;;;;;;;;;21.44;59.33;100670.53;4933063;28;6824;-84
2023/09/28 07:11:19;;;;;;;;;;;;;;;21.53;59.65;100674.06;4925361;28;7733;-85
2023/09/28 07:13:45;;;;;;;;;;;;;;;21.63;59.75;100673.25;4925329;28;7027;-86
2023/09/28 07:16:11;;;;;;;;;;;;;;;21.74;59.37;100681.19;4933222;28;6991;-85
2023/09/28 07:18:37;;;;;;;;;;;;;;;21.84;59.28;100674.31;4923736;28;6957;-87
2023/09/28 07:21:03;;;;;;;;;;;;;;;21.92;59.19;100689.13;4915784;28;7046;-85
2023/09/28 07:23:28;;;;;;;;;;;;;;;22.01;59.26;100690.91;4934172;28;7200;-86
2023/09/28 07:25:55;;;;;;;;;;;;;;;22.10;59.21;100695.31;4918176;28;7116;-85
2023/09/28 07:28:21;;;;;;;;;;;;;;;22.21;59.21;100700.56;4923833;28;8048;-85
2023/09/28 07:30:47;;;;;;;;;;;;;;;22.31;58.96;100702.38;4922922;28;6796;-85
2023/09/28 07:33:15;;;;;;;;;;;;;;;22.42;58.58;100704.16;4917376;28;8426;-85
2023/09/28 07:35:45;;;;;;;;;;;;;;;22.53;58.90;100694.66;4914887;28;6861;-86
2023/09/28 07:38:11;;;;;;;;;;;;;;;22.66;58.87;100697.28;4916673;28;6877;-87
2023/09/28 07:40:37;;;;;;;;;;;;;;;22.73;58.39;100693.81;4918129;28;6985;-84
2023/09/28 07:43:03;;;;;;;;;;;;;;;22.78;58.27;100686.84;4933101;28;6892;-85
2023/09/28 07:45:28;;;;;;;;;;;;;;;22.83;58.31;100676.41;4933006;28;6959;-84
2023/09/28 07:47:54;;;;;;;;;;;;;;;22.84;57.91;100679.03;4932835;28;7447;-83
2023/09/28 07:50:19;;;;;;;;;;;;;;;22.87;57.94;100686.88;4935995;28;7226;-85
2023/09/28 07:52:45;;;;;;;;;;;;;;;22.88;57.76;100683.38;4912319;28;7009;-83
2023/09/28 07:55:11;;;;;;;;;;;;;;;22.91;57.23;100692.13;4933220;28;7200;-81
2023/09/28 07:57:37;;;;;;;;;;;;;;;22.91;57.58;100686.91;4934223;28;7235;-82
2023/09/28 08:00:04;;;;;;;;;;;;;;;22.92;57.50;100681.66;4944123;28;6970;-78
2023/09/28 08:02:30;;;;;;;;;;;;;;;22.94;57.33;100686.88;4932914;28;6804;-74
2023/09/28 08:04:55;;;;;;;;;;;;;;;22.95;57.05;100694.75;4950677;28;7704;-75
2023/09/28 08:09:49;;;;;;;;;;;;;;;23.04;56.75;100704.31;5018116;28;6933;-76
2023/09/28 08:12:14;;;;;;;;;;;;;;;23.08;56.99;100720.88;4984045;28;7039;-76
2023/09/28 08:14:40;;;;;;;;;;;;;;;23.13;56.81;100725.25;4976377;28;6944;-75
2023/09/28 08:17:06;;;;;;;;;;;;;;;23.22;56.71;100736.59;4990166;28;7314;-74
2023/09/28 08:19:31;;;;;;;;;;;;;;;23.33;56.73;100723.56;4975155;28;6812;-75
2023/09/28 08:21:57;;;;;;;;;;;;;;;23.45;56.63;100723.56;4991706;28;7425;-75
2023/09/28 08:24:23;;;;;;;;;;;;;;;23.58;56.24;100729.66;4992525;28;7031;-75
2023/09/28 08:26:48;;;;;;;;;;;;;;;23.68;56.32;100731.38;4991885;28;7231;-74
2023/09/28 08:29:15;;;;;;;;;;;;;;;23.74;56.06;100730.50;4976010;28;6945;-74
2023/09/28 08:31:40;;;;;;;;;;;;;;;23.77;54.89;100738.34;4991707;28;7170;-74
2023/09/28 08:34:08;;;;;;;;;;;;;;;23.79;54.50;100740.97;4992634;28;6998;-74
2023/09/28 08:36:33;;;;;;;;;;;;;;;23.78;54.85;100729.63;4991862;28;7070;-74
2023/09/28 08:38:59;;;;;;;;;;;;;;;23.81;54.46;100731.38;4987394;28;7013;-74
2023/09/28 08:41:45;;;;;;;;;;;;;;;23.82;54.01;100730.50;4993015;28;6788;-73
2023/09/28 08:44:12;;;;;;;;;;;;;;;23.82;53.45;100730.50;4963427;28;8141;-73
2023/09/28 08:46:38;;;;;;;;;;;;;;;23.81;53.47;100733.97;4981080;28;7366;-74
2023/09/28 08:49:08;;;;;;;;;;;;;;;23.78;53.30;100728.75;4987902;28;7003;-74
2023/09/28 08:51:36;;;;;;;;;;;;;;;23.83;53.03;100742.69;4979173;28;7208;-74
2023/09/28 08:54:05;;;;;;;;;;;;;;;23.87;53.34;100752.31;4970553;28;7678;-74
2023/09/28 08:56:37;;;;;;;;;;;;;;;23.98;52.65;100757.50;4974991;28;7183;-74
2023/09/28 08:59:03;;;;;;;;;;;;;;;24.12;53.13;100747.03;4973778;28;6808;-74
2023/09/28 09:01:33;;;;;;;;;;;;;;;24.29;53.19;100756.59;4972317;28;6827;-74
2023/09/28 09:03:59;;;;;;;;;;;;;;;24.44;52.36;100753.91;4968568;28;7013;-74
2023/09/28 09:06:28;;;;;;;;;;;;;;;24.64;51.72;100763.44;4992578;28;7178;-75
2023/09/28 09:09:00;;;;;;;;;;;;;;;24.76;51.57;100763.38;4983723;28;7249;-75
2023/09/28 09:11:28;;;;;;;;;;;;;;;24.84;51.75;100768.59;4958926;28;7094;-76
2023/09/28 09:13:54;;;;;;;;;;;;;;;24.88;51.51;100764.22;4980462;28;7022;-75
2023/09/28 09:16:27;;;;;;;;;;;;;;;24.93;51.24;100773.78;4985837;28;7222;-75
2023/09/28 09:18:57;;;;;;;;;;;;;;;24.98;50.87;100771.13;4977658;28;7137;-75
2023/09/28 09:21:23;;;;;;;;;;;;;;;25.04;50.94;100781.59;4980705;28;7832;-75
2023/09/28 09:24:05;;;;;;;;;;;;;;;25.13;50.61;100782.44;4979564;28;7039;-74
2023/09/28 09:26:42;;;;;;;;;;;;;;;25.27;50.74;100777.09;4977062;28;7267;-74
2023/09/28 09:29:09;;;;;;;;;;;;;;;25.47;51.09;100779.53;4976777;28;7066;-73
2023/09/28 09:31:46;;;;;;;;;;;;;;;25.65;50.65;100776.81;4975664;28;7680;-74
2023/09/28 09:34:19;;;;;;;;;;;;;;;25.78;50.33;100767.06;4994481;28;7425;-73
2023/09/28 09:37:05;;;;;;;;;;;;;;;25.97;50.10;100771.25;4962911;28;7003;-75
2023/09/28 09:39:32;;;;;;;;;;;;;;;26.17;50.45;100768.44;4985991;28;7288;-74
2023/09/28 09:42:00;;;;;;;;;;;;;;;26.42;50.15;100771.66;4989121;28;7000;-73
2023/09/28 09:44:27;;;;;;;;;;;;;;;26.64;49.70;100762.66;4998679;28;7425;-72
2023/09/28 09:46:55;;;;;;;;;;;;;;;26.82;49.42;100766.78;4995722;28;7259;-73
2023/09/28 09:49:24;;;;;;;;;;;;;;;27.00;49.07;100765.69;4995257;28;7412;-74
2023/09/28 09:51:49;;;;;;;;;;;;;;;27.21;48.32;100769.75;4996890;28;6803;-73
2023/09/28 09:54:16;;;;;;;;;;;;;;;27.36;47.94;100778.28;4980261;28;7318;-72
2023/09/28 09:56:46;;;;;;;;;;;;;;;27.43;47.48;100782.56;4995053;28;6864;-74
2023/09/28 09:59:21;;;;;;;;;;;;;;;27.37;47.30;100778.25;4963506;28;7349;-74
2023/09/28 10:01:48;;;;;;;;;;;;;;;27.30;46.80;100780.13;4993435;28;7173;-73
2023/09/28 10:04:16;;;;;;;;;;;;;;;27.27;46.79;100785.44;4963943;28;8021;-73
2023/09/28 10:06:51;;;;;;;;;;;;;;;27.24;46.33;100780.22;4994815;28;6815;-73
2023/09/28 10:09:21;;;;;;;;;;;;;;;27.19;46.54;100776.78;4989816;28;7003;-73
2023/09/28 10:11:49;;;;;;;;;;;;;;;27.15;46.58;100770.69;4978741;28;7304;-73
2023/09/28 10:14:25;;;;;;;;;;;;;;;27.12;46.42;100776.03;4993005;28;7275;-73
2023/09/28 10:16:53;;;;;;;;;;;;;;;27.05;46.18;100786.66;4973169;28;7004;-76
2023/09/28 10:19:21;;;;;;;;;;;;;;;26.93;45.94;100791.19;4978887;28;7239;-76
2023/09/28 10:21:47;;;;;;;;;;;;;;;26.76;46.03;100789.66;4983081;28;6995;-76
2023/09/28 10:24:20;;;;;;;;;;;;;;;26.60;46.18;100782.84;4992952;28;7211;-76
2023/09/28 10:26:50;;;;;;;;;;;;;;;26.44;46.16;100782.16;4974509;28;6815;-76
2023/09/28 10:29:28;;;;;;;;;;;;;;;26.31;46.11;100774.41;4991186;28;7153;-76
2023/09/28 10:31:54;;;;;;;;;;;;;;;26.22;46.64;100769.28;4963826;28;7014;-76
2023/09/28 10:34:20;;;;;;;;;;;;;;;26.19;46.63;100771.91;4981830;28;6975;-77
2023/09/28 10:37:07;;;;;;;;;;;;;;;26.23;47.01;100763.16;4993219;28;6945;-77
2023/09/28 10:39:33;;;;;;;;;;;;;;;26.34;47.22;100755.13;4994843;28;7032;-76
2023/09/28 10:42:10;;;;;;;;;;;;;;;26.52;47.23;100763.66;4990275;28;7304;-76
2023/09/28 10:44:47;;;;;;;;;;;;;;;26.70;47.11;100757.28;4975577;28;7152;-77
2023/09/28 10:47:13;;;;;;;;;;;;;;;26.89;46.65;100760.56;4983560;28;7084;-76
2023/09/28 10:49:39;;;;;;;;;;;;;;;27.06;46.96;100762.09;5012541;23;6832;-76
2023/09/28 10:52:09;;;;;;;;;;;;;;;27.16;45.93;100756.66;4997320;23;6784;-76
2023/09/28 10:54:35;;;;;;;;;;;;;;;27.24;45.67;100753.94;4960586;28;7400;-75
2023/09/28 10:57:03;;;;;;;;;;;;;;;27.22;45.88;100754.84;4960615;28;6995;-75
2023/09/28 10:59:29;;;;;;;;;;;;;;;27.11;45.67;100755.88;4967096;28;9292;-75
2023/09/28 11:01:54;;;;;;;;;;;;;;;27.07;45.72;100754.16;4965217;28;7221;-75
2023/09/28 11:04:20;;;;;;;;;;;;;;;27.05;46.09;100757.72;4966045;28;6795;-75
2023/09/28 11:06:45;;;;;;;;;;;;;;;27.01;46.03;100757.75;4964880;28;6856;-75
2023/09/28 11:09:12;;;;;;;;;;;;;;;27.01;46.04;100768.28;4966183;28;7114;-75
2023/09/28 11:11:39;;;;;;;;;;;;;;;26.99;46.33;100766.56;4978863;28;6807;-75
2023/09/28 11:14:05;;;;;;;;;;;;;;;26.95;46.37;100765.75;4958830;28;8393;-75
2023/09/28 11:16:33;;;;;;;;;;;;;;;26.89;46.13;100768.47;4950020;28;6974;-75
2023/09/28 11:18:59;;;;;;;;;;;;;;;26.82;46.45;100766.78;4980954;28;7066;-75
2023/09/28 11:21:26;;;;;;;;;;;;;;;26.75;46.51;100766.88;4981103;28;7420;-75
2023/09/28 11:23:52;;;;;;;;;;;;;;;26.68;46.50;100767.84;4963314;28;6880;-75
2023/09/28 11:26:19;;;;;;;;;;;;;;;26.57;46.17;100760.09;4961327;28;7178;-75
2023/09/28 11:28:45;;;;;;;;;;;;;;;26.47;46.52;100763.72;4963004;28;6800;-75
2023/09/28 11:31:12;;;;;;;;;;;;;;;26.40;46.79;100755.06;4964669;28;8040;-75
2023/09/28 11:33:44;;;;;;;;;;;;;;;26.41;46.76;100750.66;4962570;28;8158;-75
2023/09/28 11:36:16;;;;;;;;;;;;;;;26.42;46.91;100750.66;4964367;28;7230;-75
2023/09/28 11:38:44;;;;;;;;;;;;;;;26.50;47.18;100749.69;4964963;28;7003;-75
2023/09/28 11:41:09;;;;;;;;;;;;;;;26.65;47.16;100738.94;4949785;28;7173;-76
2023/09/28 11:43:50;;;;;;;;;;;;;;;26.88;46.87;100730.78;4960251;28;7192;-73
2023/09/28 11:46:24;;;;;;;;;;;;;;;27.06;46.60;100738.44;5005507;23;7066;-85
2023/09/28 11:49:13;;;;;;;;;;;;;;;27.23;46.33;100741.63;4990697;28;6970;-86
2023/09/28 11:51:43;;;;;;;;;;;;;;;27.35;45.88;100740.56;4988012;28;6869;-85
2023/09/28 11:54:20;;;;;;;;;;;;;;;27.36;46.19;100731.78;4995838;28;7063;-86
2023/09/28 11:56:49;;;;;;;;;;;;;;;27.37;46.18;100733.53;4986694;28;7164;-86
2023/09/28 11:59:15;;;;;;;;;;;;;;;27.39;45.87;100747.53;4971378;28;7005;-85
2023/09/28 12:01:56;;;;;;;;;;;;;;;27.30;45.68;100732.75;4969068;28;7052;-85
2023/09/28 12:04:43;;;;;;;;;;;;;;;;;;;;;
2023/09/28 12:07:09;;;;;;;;;;;;;;;27.02;45.47;100733.19;4979274;28;7076;-85
2023/09/28 12:09:39;;;;;;;;;;;;;;;27.00;45.78;100734.97;4959524;28;7058;-85
2023/09/28 12:12:04;;;;;;;;;;;;;;;26.93;45.96;100727.22;4985044;28;7004;-85
2023/09/28 12:14:31;;;;;;;;;;;;;;;26.92;45.76;100731.59;4994228;28;6845;-84
2023/09/28 12:16:57;;;;;;;;;;;;;;;26.88;45.96;100719.41;4986742;28;7215;-85
2023/09/28 12:19:23;;;;;;;;;;;;;;;26.92;46.38;100725.50;4980856;28;6948;-85
2023/09/28 12:21:52;;;;;;;;;;;;;;;27.00;46.53;100726.25;4974576;28;6976;-85
2023/09/28 12:24:18;;;;;;;;;;;;;;;27.09;46.66;100723.47;4973155;28;7262;-85
2023/09/28 12:26:49;;;;;;;;;;;;;;;27.18;46.63;100728.56;4966016;28;6967;-86
2023/09/28 12:29:20;;;;;;;;;;;;;;;27.22;46.79;100718.84;4998895;28;6941;-85
2023/09/28 12:31:53;;;;;;;;;;;;;;;27.29;46.67;100717.00;4968645;28;7063;-85
2023/09/28 12:34:21;;;;;;;;;;;;;;;27.38;46.46;100710.72;4998461;28;6982;-85
2023/09/28 12:36:51;;;;;;;;;;;;;;;27.48;45.84;100704.41;4985054;28;6993;-85
2023/09/28 12:39:21;;;;;;;;;;;;;;;27.52;45.89;100694.69;4991171;28;6854;-85
2023/09/28 12:41:52;;;;;;;;;;;;;;;27.65;46.25;100698.84;4979429;28;7184;-85
2023/09/28 12:44:25;;;;;;;;;;;;;;;27.71;45.48;100695.22;5165665;23;6838;-85
2023/09/28 12:46:54;;;;;;;;;;;;;;;27.69;45.75;100686.50;5020878;28;6963;-84
2023/09/28 12:49:20;;;;;;;;;;;;;;;27.65;45.46;100692.72;4979406;28;6843;-83
2023/09/28 12:51:47;;;;;;;;;;;;;;;27.55;45.93;100686.75;4968766;28;6963;-83
2023/09/28 12:54:23;;;;;;;;;;;;;;;27.39;45.41;100691.41;5003674;28;6848;-84